^^
Saratoga-Weather Station Historical Data
Daily Summary for June 13, 2021 Units:  Both    English   Metric
Daily Weekly Monthly Yearly Custom
  High: Low: Average:
Temperature: 64.6 °F /  18.1 °C 32 °F /   °C 61.5 °F /  16.4 °C
Dew Point: 61.5 °F /  16.4 °C 32 °F /   °C 59.5 °F /  15.3 °C
Humidity: 95% % 93%
Wind Speed: 11mph /  17.7km/h - 2.9mph /  4.7km/h
Wind Gust: 14mph /  22.5km/h - -
Wind- - West
Pressure: 29.8 in /  1009.8 hPa 29.8 in /  1007.8 hPa -
Precipitation: 0.89 in /  22.6 mm    
Historical Graphs
 
 
Tabular Data for June 13, 2021
Time Temperature Dew Point Pressure Wind Wind Speed Wind Gust Humidity Rainfall Rate (Hourly) solar
00:00 64.2 °F /  17.9 °C 61.2 °F /  16.2 °C 29.8in /  1008.5hPa Calm   2mph /  3.2km/h 90% 0in /  0.0mm 0 W/m2
00:05 64 °F /  17.8 °C 61 °F /  16.1 °C 29.8in /  1008.8hPa Calm     90% 0in /  0.0mm 0 W/m2
00:10 64 °F /  17.8 °C 61 °F /  16.1 °C 29.8in /  1008.8hPa WNW 2mph /  3.2km/h 2mph /  3.2km/h 90% 0in /  0.0mm 0 W/m2
00:15 64 °F /  17.8 °C 61 °F /  16.1 °C 29.8in /  1008.8hPa West 2mph /  3.2km/h 5mph /  8km/h 90% 0in /  0.0mm 0 W/m2
00:20 64 °F /  17.8 °C 61 °F /  16.1 °C 29.8in /  1008.8hPa WNW 2mph /  3.2km/h 5mph /  8km/h 90% 0in /  0.0mm 0 W/m2
00:25 64.2 °F /  17.9 °C 61.2 °F /  16.2 °C 29.8in /  1008.8hPa West 0.9mph /  1.4km/h 3mph /  4.8km/h 90% 0in /  0.0mm 0 W/m2
00:30 64.4 °F /  18 °C 61.3 °F /  16.3 °C 29.8in /  1008.8hPa West 4mph /  6.4km/h 6mph /  9.7km/h 90% 0in /  0.0mm 0 W/m2
00:35 64.6 °F /  18.1 °C 61.5 °F /  16.4 °C 29.8in /  1008.8hPa WNW 2mph /  3.2km/h 6mph /  9.7km/h 90% 0in /  0.0mm 0 W/m2
00:40 64.6 °F /  18.1 °C 61.5 °F /  16.4 °C 29.8in /  1009.1hPa Calm   1mph /  1.6km/h 90% 0in /  0.0mm 0 W/m2
00:45 64.4 °F /  18 °C 61.3 °F /  16.3 °C 29.8in /  1008.8hPa WSW 0.9mph /  1.4km/h 5mph /  8km/h 90% 0in /  0.0mm 0 W/m2
00:50 64.4 °F /  18 °C 61.3 °F /  16.3 °C 29.8in /  1008.8hPa West 0.9mph /  1.4km/h 2mph /  3.2km/h 90% 0in /  0.0mm 0 W/m2
00:55 64.4 °F /  18 °C 61.3 °F /  16.3 °C 29.8in /  1008.8hPa Calm   1mph /  1.6km/h 90% 0in /  0.0mm 0 W/m2
01:01 64.2 °F /  17.9 °C 61.2 °F /  16.2 °C 29.8in /  1008.8hPa Calm     90% 0in /  0.0mm 0 W/m2
01:06 64.2 °F /  17.9 °C 61.2 °F /  16.2 °C 29.8in /  1008.8hPa Calm     90% 0in /  0.0mm 0 W/m2
01:11 64.2 °F /  17.9 °C 61.5 °F /  16.4 °C 29.8in /  1008.8hPa Calm     91% 0in /  0.0mm 0 W/m2
01:16 64.2 °F /  17.9 °C 61.5 °F /  16.4 °C 29.8in /  1008.8hPa Calm     91% 0in /  0.0mm 0 W/m2
01:21 64 °F /  17.8 °C 61.3 °F /  16.3 °C 29.8in /  1008.8hPa Calm     91% 0in /  0.0mm 0 W/m2
01:26 63.9 °F /  17.7 °C 61.2 °F /  16.2 °C 29.8in /  1009.1hPa Calm     91% 0in /  0.0mm 0 W/m2
01:31 63.9 °F /  17.7 °C 61.2 °F /  16.2 °C 29.8in /  1009.1hPa Calm     91% 0in /  0.0mm 0 W/m2
01:36 63.7 °F /  17.6 °C 61.3 °F /  16.3 °C 29.8in /  1009.1hPa Calm     92% 0in /  0.0mm 0 W/m2
01:41 63.7 °F /  17.6 °C 61.3 °F /  16.3 °C 29.8in /  1009.1hPa Calm     92% 0in /  0.0mm 0 W/m2
01:46 63.5 °F /  17.5 °C 61.2 °F /  16.2 °C 29.8in /  1008.8hPa Calm   2mph /  3.2km/h 92% 0in /  0.0mm 0 W/m2
01:51 63.3 °F /  17.4 °C 61 °F /  16.1 °C 29.8in /  1008.8hPa Calm     92% 0in /  0.0mm 0 W/m2
01:56 63.3 °F /  17.4 °C 61 °F /  16.1 °C 29.8in /  1008.8hPa West 0.9mph /  1.4km/h 1mph /  1.6km/h 92% 0in /  0.0mm 0 W/m2
02:01 63.3 °F /  17.4 °C 61 °F /  16.1 °C 29.8in /  1008.8hPa West 0.9mph /  1.4km/h 2mph /  3.2km/h 92% 0in /  0.0mm 0 W/m2
02:06 63.3 °F /  17.4 °C 61 °F /  16.1 °C 29.8in /  1008.8hPa Calm   1mph /  1.6km/h 92% 0in /  0.0mm 0 W/m2
02:11 63.5 °F /  17.5 °C 61.2 °F /  16.2 °C 29.8in /  1008.8hPa West 6mph /  9.7km/h 6mph /  9.7km/h 92% 0in /  0.0mm 0 W/m2
02:16 63.7 °F /  17.6 °C 61.3 °F /  16.3 °C 29.8in /  1008.8hPa West 2.9mph /  4.7km/h 4mph /  6.4km/h 92% 0in /  0.0mm 0 W/m2
02:21 63.7 °F /  17.6 °C 61.3 °F /  16.3 °C 29.8in /  1008.8hPa SW 2.9mph /  4.7km/h 4mph /  6.4km/h 92% 0in /  0.0mm 0 W/m2
02:26 63.7 °F /  17.6 °C 61 °F /  16.1 °C 29.8in /  1008.8hPa WNW 2.9mph /  4.7km/h 4mph /  6.4km/h 91% 0in /  0.0mm 0 W/m2
02:31 63.9 °F /  17.7 °C 61.2 °F /  16.2 °C 29.8in /  1008.8hPa West 2.9mph /  4.7km/h 8mph /  12.9km/h 91% 0in /  0.0mm 0 W/m2
02:36 63.7 °F /  17.6 °C 61 °F /  16.1 °C 29.8in /  1008.5hPa WNW 2.9mph /  4.7km/h 6mph /  9.7km/h 91% 0in /  0.0mm 0 W/m2
02:41 63.7 °F /  17.6 °C 61 °F /  16.1 °C 29.8in /  1008.5hPa West 6.9mph /  11.1km/h 8mph /  12.9km/h 91% 0in /  0.0mm 0 W/m2
02:46 63.7 °F /  17.6 °C 61 °F /  16.1 °C 29.8in /  1008.5hPa West 2.9mph /  4.7km/h 8mph /  12.9km/h 91% 0in /  0.0mm 0 W/m2
02:51 63.7 °F /  17.6 °C 61 °F /  16.1 °C 29.8in /  1008.5hPa WNW 0.9mph /  1.4km/h 6mph /  9.7km/h 91% 0in /  0.0mm 0 W/m2
02:56 63.7 °F /  17.6 °C 61 °F /  16.1 °C 29.8in /  1008.5hPa West 4mph /  6.4km/h 8mph /  12.9km/h 91% 0in /  0.0mm 0 W/m2
03:01 63.5 °F /  17.5 °C 60.8 °F /  16 °C 29.8in /  1008.5hPa WSW 4mph /  6.4km/h 4mph /  6.4km/h 91% 0in /  0.0mm 0 W/m2
03:06 63.3 °F /  17.4 °C 60.6 °F /  15.9 °C 29.8in /  1008.5hPa WSW 4.9mph /  7.9km/h 7mph /  11.3km/h 91% 0in /  0.0mm 0 W/m2
03:11 63.3 °F /  17.4 °C 60.6 °F /  15.9 °C 29.8in /  1008.5hPa SW 6mph /  9.7km/h 6mph /  9.7km/h 91% 0in /  0.0mm 0 W/m2
03:16 63.1 °F /  17.3 °C 60.8 °F /  16 °C 29.8in /  1008.5hPa WNW 4mph /  6.4km/h 7mph /  11.3km/h 92% 0in /  0.0mm 0 W/m2
03:21 63.1 °F /  17.3 °C 60.8 °F /  16 °C 29.8in /  1008.5hPa WSW 2.9mph /  4.7km/h 5mph /  8km/h 92% 0in /  0.0mm 0 W/m2
03:26 63.1 °F /  17.3 °C 60.8 °F /  16 °C 29.8in /  1008.5hPa WNW 4mph /  6.4km/h 8mph /  12.9km/h 92% 0in /  0.0mm 0 W/m2
03:31 63.1 °F /  17.3 °C 60.8 °F /  16 °C 29.8in /  1008.5hPa West 2mph /  3.2km/h 9mph /  14.5km/h 92% 0in /  0.0mm 0 W/m2
03:36 63.1 °F /  17.3 °C 60.8 °F /  16 °C 29.8in /  1008.5hPa WSW 2.9mph /  4.7km/h 4mph /  6.4km/h 92% 0in /  0.0mm 0 W/m2
03:41 63 °F /  17.2 °C 60.6 °F /  15.9 °C 29.8in /  1008.5hPa WNW 4mph /  6.4km/h 9mph /  14.5km/h 92% 0in /  0.0mm 0 W/m2
03:46 63 °F /  17.2 °C 60.6 °F /  15.9 °C 29.8in /  1008.5hPa WNW 0.9mph /  1.4km/h 8mph /  12.9km/h 92% 0in /  0.0mm 0 W/m2
03:51 62.8 °F /  17.1 °C 60.8 °F /  16 °C 29.8in /  1008.5hPa NW 4mph /  6.4km/h 9mph /  14.5km/h 93% 0in /  0.0mm 0 W/m2
03:56 62.6 °F /  17 °C 60.6 °F /  15.9 °C 29.8in /  1008.1hPa WSW 4mph /  6.4km/h 7mph /  11.3km/h 93% 0in /  0.0mm 0 W/m2
04:01 62.4 °F /  16.9 °C 60.4 °F /  15.8 °C 29.8in /  1008.1hPa WNW 2.9mph /  4.7km/h 6mph /  9.7km/h 93% 0in /  0.0mm 0 W/m2
04:06 62.4 °F /  16.9 °C 60.4 °F /  15.8 °C 29.8in /  1008.1hPa West 2.9mph /  4.7km/h 4mph /  6.4km/h 93% 0in /  0.0mm 0 W/m2
04:11 62.4 °F /  16.9 °C 60.4 °F /  15.8 °C 29.8in /  1008.1hPa West 2.9mph /  4.7km/h 8mph /  12.9km/h 93% 0in /  0.0mm 0 W/m2
04:16 62.2 °F /  16.8 °C 60.3 °F /  15.7 °C 29.8in /  1008.1hPa West 2.9mph /  4.7km/h 7mph /  11.3km/h 93% 0in /  0.0mm 0 W/m2
04:21 62.2 °F /  16.8 °C 60.3 °F /  15.7 °C 29.8in /  1008.1hPa WNW 6mph /  9.7km/h 8mph /  12.9km/h 93% 0in /  0.0mm 0 W/m2
04:26 62.2 °F /  16.8 °C 60.3 °F /  15.7 °C 29.8in /  1008.1hPa WSW 2mph /  3.2km/h 8mph /  12.9km/h 93% 0in /  0.0mm 0 W/m2
04:31 62.2 °F /  16.8 °C 60.3 °F /  15.7 °C 29.8in /  1008.1hPa WSW 4.9mph /  7.9km/h 8mph /  12.9km/h 93% 0in /  0.0mm 0 W/m2
04:36 62.2 °F /  16.8 °C 60.3 °F /  15.7 °C 29.8in /  1007.8hPa WSW 4.9mph /  7.9km/h 9mph /  14.5km/h 93% 0in /  0.0mm 0 W/m2
04:41 62.2 °F /  16.8 °C 60.3 °F /  15.7 °C 29.8in /  1008.1hPa West 2.9mph /  4.7km/h 10mph /  16.1km/h 93% 0in /  0.0mm 0 W/m2
04:46 62.2 °F /  16.8 °C 60.3 °F /  15.7 °C 29.8in /  1008.1hPa West 2.9mph /  4.7km/h 6mph /  9.7km/h 93% 0in /  0.0mm 0 W/m2
04:51 62.2 °F /  16.8 °C 60.3 °F /  15.7 °C 29.8in /  1008.1hPa West 8.1mph /  13km/h 9mph /  14.5km/h 93% 0in /  0.0mm 0 W/m2
04:56 62.2 °F /  16.8 °C 60.3 °F /  15.7 °C 29.8in /  1008.5hPa West 6mph /  9.7km/h 8mph /  12.9km/h 93% 0in /  0.0mm 0 W/m2
05:01 62.2 °F /  16.8 °C 60.3 °F /  15.7 °C 29.8in /  1008.1hPa WNW 4mph /  6.4km/h 9mph /  14.5km/h 93% 0in /  0.0mm 0 W/m2
05:06 62.2 °F /  16.8 °C 60.3 °F /  15.7 °C 29.8in /  1008.1hPa West 8.9mph /  14.3km/h 9mph /  14.5km/h 93% 0in /  0.0mm 0 W/m2
05:11 62.2 °F /  16.8 °C 60.3 °F /  15.7 °C 29.8in /  1008.1hPa West 8.1mph /  13km/h 8mph /  12.9km/h 93% 0in /  0.0mm 0 W/m2
05:16 62.2 °F /  16.8 °C 60.3 °F /  15.7 °C 29.8in /  1008.1hPa West 6mph /  9.7km/h 9mph /  14.5km/h 93% 0in /  0.0mm 0 W/m2
05:21 62.2 °F /  16.8 °C 60.3 °F /  15.7 °C 29.8in /  1008.1hPa West 4mph /  6.4km/h 7mph /  11.3km/h 93% 0in /  0.0mm 0 W/m2
05:26 62.2 °F /  16.8 °C 60.3 °F /  15.7 °C 29.8in /  1008.1hPa West 6mph /  9.7km/h 8mph /  12.9km/h 93% 0in /  0.0mm 0 W/m2
05:31 62.2 °F /  16.8 °C 60.3 °F /  15.7 °C 29.8in /  1008.1hPa West 4mph /  6.4km/h 10mph /  16.1km/h 93% 0in /  0.0mm 0 W/m2
05:36 62.2 °F /  16.8 °C 60.3 °F /  15.7 °C 29.8in /  1007.8hPa WNW 2mph /  3.2km/h 10mph /  16.1km/h 93% 0in /  0.0mm 0 W/m2
05:41 62.2 °F /  16.8 °C 60.4 °F /  15.8 °C 29.8in /  1007.8hPa WNW 8.1mph /  13km/h 9mph /  14.5km/h 94% 0in /  0.0mm 0 W/m2
05:46 62.1 °F /  16.7 °C 60.3 °F /  15.7 °C 29.8in /  1007.8hPa WNW 2.9mph /  4.7km/h 10mph /  16.1km/h 94% 0in /  0.0mm 0 W/m2
05:51 62.1 °F /  16.7 °C 60.3 °F /  15.7 °C 29.8in /  1007.8hPa WSW 4mph /  6.4km/h 8mph /  12.9km/h 94% 0in /  0.0mm 0 W/m2
05:56 62.1 °F /  16.7 °C 60.3 °F /  15.7 °C 29.8in /  1008.1hPa WNW 4.9mph /  7.9km/h 10mph /  16.1km/h 94% 0in /  0.0mm 0 W/m2
06:01 62.1 °F /  16.7 °C 60.3 °F /  15.7 °C 29.8in /  1008.1hPa West 2.9mph /  4.7km/h 7mph /  11.3km/h 94% 0.01in /  0.2mm 0 W/m2
06:06 61.9 °F /  16.6 °C 60.1 °F /  15.6 °C 29.8in /  1007.8hPa WSW 4.9mph /  7.9km/h 10mph /  16.1km/h 94% 0.02in /  0.5mm 0 W/m2
06:11 61.9 °F /  16.6 °C 60.1 °F /  15.6 °C 29.8in /  1007.8hPa WNW 2.9mph /  4.7km/h 11mph /  17.7km/h 94% 0.02in /  0.5mm 0 W/m2
06:16 61.7 °F /  16.5 °C 59.9 °F /  15.5 °C 29.8in /  1007.8hPa West 2mph /  3.2km/h 5mph /  8km/h 94% 0.03in /  0.8mm 0 W/m2
06:21 61.7 °F /  16.5 °C 59.9 °F /  15.5 °C 29.8in /  1008.1hPa West 6mph /  9.7km/h 11mph /  17.7km/h 94% 0.03in /  0.8mm 0 W/m2
06:26 61.5 °F /  16.4 °C 59.7 °F /  15.4 °C 29.8in /  1008.1hPa WSW 6.9mph /  11.1km/h 7mph /  11.3km/h 94% 0.04in /  1.0mm 0 W/m2
06:31 61.5 °F /  16.4 °C 60.1 °F /  15.6 °C 29.8in /  1008.1hPa NW 2mph /  3.2km/h 8mph /  12.9km/h 95% 0.06in /  1.5mm 5 W/m2
06:36 61.5 °F /  16.4 °C 60.1 °F /  15.6 °C 29.8in /  1008.1hPa WNW 4mph /  6.4km/h 7mph /  11.3km/h 95% 0.06in /  1.5mm 5 W/m2
06:41 61.5 °F /  16.4 °C 60.1 °F /  15.6 °C 29.8in /  1008.1hPa WNW 4.9mph /  7.9km/h 5mph /  8km/h 95% 0.08in /  2.0mm 5 W/m2
06:46 61.3 °F /  16.3 °C 59.9 °F /  15.5 °C 29.8in /  1008.1hPa WNW 4mph /  6.4km/h 6mph /  9.7km/h 95% 0.09in /  2.3mm 5 W/m2
06:51 61.3 °F /  16.3 °C 59.9 °F /  15.5 °C 29.8in /  1007.8hPa West 2mph /  3.2km/h 9mph /  14.5km/h 95% 0.1in /  2.5mm 9 W/m2
06:56 61.3 °F /  16.3 °C 59.9 °F /  15.5 °C 29.8in /  1007.8hPa West 2.9mph /  4.7km/h 8mph /  12.9km/h 95% 0.11in /  2.8mm 12 W/m2
07:01 61.3 °F /  16.3 °C 59.9 °F /  15.5 °C 29.8in /  1007.8hPa West 2mph /  3.2km/h 9mph /  14.5km/h 95% 0.1in /  2.5mm 21 W/m2
07:06 61.3 °F /  16.3 °C 59.9 °F /  15.5 °C 29.8in /  1007.8hPa WSW 2.9mph /  4.7km/h 8mph /  12.9km/h 95% 0.1in /  2.5mm 26 W/m2
07:11 61.3 °F /  16.3 °C 59.9 °F /  15.5 °C 29.8in /  1007.8hPa West 2.9mph /  4.7km/h 6mph /  9.7km/h 95% 0.09in /  2.3mm 37 W/m2
07:16 61.5 °F /  16.4 °C 60.1 °F /  15.6 °C 29.8in /  1007.8hPa West 2.9mph /  4.7km/h 6mph /  9.7km/h 95% 0.09in /  2.3mm 62 W/m2
07:21 61.5 °F /  16.4 °C 60.1 °F /  15.6 °C 29.8in /  1007.8hPa WNW 2mph /  3.2km/h 9mph /  14.5km/h 95% 0.09in /  2.3mm 74 W/m2
07:26 61.5 °F /  16.4 °C 60.1 °F /  15.6 °C 29.8in /  1007.8hPa WNW 2mph /  3.2km/h 4mph /  6.4km/h 95% 0.08in /  2.0mm 90 W/m2
07:31 61.9 °F /  16.6 °C 60.4 °F /  15.8 °C 29.8in /  1007.8hPa WNW 2mph /  3.2km/h 3mph /  4.8km/h 95% 0.06in /  1.5mm 77 W/m2
07:36 61.9 °F /  16.6 °C 60.4 °F /  15.8 °C 29.8in /  1007.8hPa WSW 4mph /  6.4km/h 6mph /  9.7km/h 95% 0.06in /  1.5mm 56 W/m2
07:42 61.9 °F /  16.6 °C 60.4 °F /  15.8 °C 29.8in /  1007.8hPa West 2.9mph /  4.7km/h 9mph /  14.5km/h 95% 0.04in /  1.0mm 51 W/m2
07:47 61.9 °F /  16.6 °C 60.4 °F /  15.8 °C 29.8in /  1007.8hPa West 4mph /  6.4km/h 7mph /  11.3km/h 95% 0.02in /  0.5mm 49 W/m2
07:52 61.9 °F /  16.6 °C 60.4 °F /  15.8 °C 29.8in /  1007.8hPa WNW 2.9mph /  4.7km/h 7mph /  11.3km/h 95% 0.02in /  0.5mm 33 W/m2
07:57 61.9 °F /  16.6 °C 60.4 °F /  15.8 °C 29.8in /  1007.8hPa WSW 2.9mph /  4.7km/h 6mph /  9.7km/h 95% 0.01in /  0.2mm 26 W/m2
08:02 61.9 °F /  16.6 °C 60.4 °F /  15.8 °C 29.8in /  1007.8hPa WSW 2.9mph /  4.7km/h 8mph /  12.9km/h 95% 0.01in /  0.2mm 23 W/m2
08:07 61.9 °F /  16.6 °C 60.4 °F /  15.8 °C 29.8in /  1007.8hPa WNW 4mph /  6.4km/h 4mph /  6.4km/h 95% 0in /  0.0mm 23 W/m2
08:12 61.9 °F /  16.6 °C 60.4 °F /  15.8 °C 29.8in /  1007.8hPa WNW 6.9mph /  11.1km/h 7mph /  11.3km/h 95% 0in /  0.0mm 25 W/m2
08:17 61.9 °F /  16.6 °C 60.4 °F /  15.8 °C 29.8in /  1007.8hPa West 2mph /  3.2km/h 9mph /  14.5km/h 95% 0in /  0.0mm 28 W/m2
08:22 61.9 °F /  16.6 °C 60.4 °F /  15.8 °C 29.8in /  1007.8hPa West 0.9mph /  1.4km/h 6mph /  9.7km/h 95% 0.01in /  0.2mm 37 W/m2
08:27 61.9 °F /  16.6 °C 60.4 °F /  15.8 °C 29.8in /  1007.8hPa WNW 4mph /  6.4km/h 7mph /  11.3km/h 95% 0.01in /  0.2mm 39 W/m2
08:32 61.9 °F /  16.6 °C 60.4 °F /  15.8 °C 29.8in /  1008.1hPa WNW 2.9mph /  4.7km/h 6mph /  9.7km/h 95% 0.01in /  0.2mm 39 W/m2
08:37 61.9 °F /  16.6 °C 60.4 °F /  15.8 °C 29.8in /  1007.8hPa NW 4mph /  6.4km/h 6mph /  9.7km/h 95% 0.01in /  0.2mm 46 W/m2
08:42 61.9 °F /  16.6 °C 60.4 °F /  15.8 °C 29.8in /  1008.1hPa West 2mph /  3.2km/h 3mph /  4.8km/h 95% 0.01in /  0.2mm 42 W/m2
08:47 62.1 °F /  16.7 °C 60.6 °F /  15.9 °C 29.8in /  1008.1hPa West 4mph /  6.4km/h 9mph /  14.5km/h 95% 0.01in /  0.2mm 37 W/m2
08:52 61.9 °F /  16.6 °C 60.1 °F /  15.6 °C 29.8in /  1008.1hPa WNW 2mph /  3.2km/h 7mph /  11.3km/h 94% 0.01in /  0.2mm 39 W/m2
08:57 61.9 °F /  16.6 °C 60.1 °F /  15.6 °C 29.8in /  1008.1hPa West 6mph /  9.7km/h 9mph /  14.5km/h 94% 0.01in /  0.2mm 44 W/m2
09:02 61.9 °F /  16.6 °C 60.1 °F /  15.6 °C 29.8in /  1008.1hPa WNW 4.9mph /  7.9km/h 7mph /  11.3km/h 94% 0.01in /  0.2mm 46 W/m2
09:07 61.9 °F /  16.6 °C 60.1 °F /  15.6 °C 29.8in /  1008.1hPa WNW 2.9mph /  4.7km/h 6mph /  9.7km/h 94% 0.01in /  0.2mm 46 W/m2
09:12 61.9 °F /  16.6 °C 60.1 °F /  15.6 °C 29.8in /  1008.1hPa WNW 2.9mph /  4.7km/h 4mph /  6.4km/h 94% 0.01in /  0.2mm 47 W/m2
09:17 61.7 °F /  16.5 °C 59.9 °F /  15.5 °C 29.8in /  1008.1hPa NW 0.9mph /  1.4km/h 5mph /  8km/h 94% 0.01in /  0.2mm 46 W/m2
09:22 61.7 °F /  16.5 °C 59.9 °F /  15.5 °C 29.8in /  1008.1hPa West 4mph /  6.4km/h 5mph /  8km/h 94% 0.01in /  0.2mm 37 W/m2
09:27 61.7 °F /  16.5 °C 60.3 °F /  15.7 °C 29.8in /  1008.1hPa West 2.9mph /  4.7km/h 6mph /  9.7km/h 95% 0.01in /  0.2mm 37 W/m2
09:32 61.5 °F /  16.4 °C 60.1 °F /  15.6 °C 29.8in /  1008.1hPa West 6mph /  9.7km/h 6mph /  9.7km/h 95% 0.01in /  0.2mm 46 W/m2
09:37 61.5 °F /  16.4 °C 60.1 °F /  15.6 °C 29.8in /  1008.1hPa West 2.9mph /  4.7km/h 4mph /  6.4km/h 95% 0.01in /  0.2mm 53 W/m2
09:42 61.5 °F /  16.4 °C 60.1 °F /  15.6 °C 29.8in /  1008.1hPa WNW 2.9mph /  4.7km/h 6mph /  9.7km/h 95% 0.01in /  0.2mm 54 W/m2
09:47 61.5 °F /  16.4 °C 60.1 °F /  15.6 °C 29.8in /  1008.1hPa NW 2.9mph /  4.7km/h 7mph /  11.3km/h 95% 0.01in /  0.2mm 53 W/m2
09:52 61.5 °F /  16.4 °C 60.1 °F /  15.6 °C 29.8in /  1008.1hPa West 2.9mph /  4.7km/h 7mph /  11.3km/h 95% 0.01in /  0.2mm 53 W/m2
09:57 61.5 °F /  16.4 °C 60.1 °F /  15.6 °C 29.8in /  1008.1hPa NW 4mph /  6.4km/h 7mph /  11.3km/h 95% 0.01in /  0.2mm 53 W/m2
10:02 61.5 °F /  16.4 °C 60.1 °F /  15.6 °C 29.8in /  1008.1hPa WNW 2.9mph /  4.7km/h 6mph /  9.7km/h 95% 0.01in /  0.2mm 53 W/m2
10:07 32 °F /   °C 32 °F /   °C 29.8in /  1008.1hPa WNW 4mph /  6.4km/h 8mph /  12.9km/h % 0.01in /  0.2mm W/m2
10:12 61.5 °F /  16.4 °C 60.1 °F /  15.6 °C 29.8in /  1008.1hPa West 2.9mph /  4.7km/h 3mph /  4.8km/h 95% 0.03in /  0.8mm 40 W/m2
10:17 61.5 °F /  16.4 °C 60.1 °F /  15.6 °C 29.8in /  1008.1hPa WNW 4mph /  6.4km/h 8mph /  12.9km/h 95% 0.03in /  0.8mm 53 W/m2
10:22 61.5 °F /  16.4 °C 60.1 °F /  15.6 °C 29.8in /  1008.1hPa West 2mph /  3.2km/h 7mph /  11.3km/h 95% 0.02in /  0.5mm 54 W/m2
10:27 61.5 °F /  16.4 °C 59.7 °F /  15.4 °C 29.8in /  1008.1hPa WSW 4.9mph /  7.9km/h 8mph /  12.9km/h 94% 0.03in /  0.8mm 46 W/m2
10:32 61.5 °F /  16.4 °C 59.7 °F /  15.4 °C 29.8in /  1008.1hPa WNW 8.1mph /  13km/h 9mph /  14.5km/h 94% 0.04in /  1.0mm 53 W/m2
10:37 61.5 °F /  16.4 °C 59.7 °F /  15.4 °C 29.8in /  1008.1hPa West 2mph /  3.2km/h 7mph /  11.3km/h 94% 0.05in /  1.3mm 70 W/m2
10:42 61.3 °F /  16.3 °C 59.5 °F /  15.3 °C 29.8in /  1008.1hPa West 4mph /  6.4km/h 7mph /  11.3km/h 94% 0.06in /  1.5mm 60 W/m2
10:47 61.3 °F /  16.3 °C 59.5 °F /  15.3 °C 29.8in /  1008.1hPa WSW 2.9mph /  4.7km/h 8mph /  12.9km/h 94% 0.06in /  1.5mm 54 W/m2
10:52 61.3 °F /  16.3 °C 59.5 °F /  15.3 °C 29.8in /  1008.1hPa WNW 2.9mph /  4.7km/h 9mph /  14.5km/h 94% 0.06in /  1.5mm 79 W/m2
10:57 61.3 °F /  16.3 °C 59.5 °F /  15.3 °C 29.8in /  1008.1hPa West 2.9mph /  4.7km/h 8mph /  12.9km/h 94% 0.07in /  1.8mm 79 W/m2
11:02 61.3 °F /  16.3 °C 59.5 °F /  15.3 °C 29.8in /  1008.1hPa West 2.9mph /  4.7km/h 5mph /  8km/h 94% 0.07in /  1.8mm 70 W/m2
11:07 61.3 °F /  16.3 °C 59.9 °F /  15.5 °C 29.8in /  1008.1hPa NW 2.9mph /  4.7km/h 6mph /  9.7km/h 95% 0.08in /  2.0mm 76 W/m2
11:12 61.3 °F /  16.3 °C 59.9 °F /  15.5 °C 29.8in /  1008.1hPa West 2mph /  3.2km/h 7mph /  11.3km/h 95% 0.06in /  1.5mm 67 W/m2
11:17 61.3 °F /  16.3 °C 59.9 °F /  15.5 °C 29.8in /  1008.1hPa WNW 4mph /  6.4km/h 5mph /  8km/h 95% 0.06in /  1.5mm 72 W/m2
11:22 61.3 °F /  16.3 °C 59.5 °F /  15.3 °C 29.8in /  1008.1hPa NW 2.9mph /  4.7km/h 8mph /  12.9km/h 94% 0.08in /  2.0mm 69 W/m2
11:27 61.3 °F /  16.3 °C 59.5 °F /  15.3 °C 29.8in /  1008.5hPa NW 2mph /  3.2km/h 6mph /  9.7km/h 94% 0.09in /  2.3mm 65 W/m2
11:32 61.3 °F /  16.3 °C 59.5 °F /  15.3 °C 29.8in /  1008.5hPa West 2mph /  3.2km/h 5mph /  8km/h 94% 0.09in /  2.3mm 67 W/m2
11:37 61.3 °F /  16.3 °C 59.9 °F /  15.5 °C 29.8in /  1008.5hPa WNW 2mph /  3.2km/h 4mph /  6.4km/h 95% 0.09in /  2.3mm 58 W/m2
11:42 61.3 °F /  16.3 °C 59.5 °F /  15.3 °C 29.8in /  1008.5hPa WNW 2mph /  3.2km/h 4mph /  6.4km/h 94% 0.1in /  2.5mm 56 W/m2
11:47 61.3 °F /  16.3 °C 59.5 °F /  15.3 °C 29.8in /  1008.5hPa WNW 2mph /  3.2km/h 7mph /  11.3km/h 94% 0.1in /  2.5mm 60 W/m2
11:52 61.3 °F /  16.3 °C 59.5 °F /  15.3 °C 29.8in /  1008.5hPa SW 2mph /  3.2km/h 10mph /  16.1km/h 94% 0.11in /  2.8mm 67 W/m2
11:57 61.3 °F /  16.3 °C 59.5 °F /  15.3 °C 29.8in /  1008.5hPa WSW 2.9mph /  4.7km/h 6mph /  9.7km/h 94% 0.11in /  2.8mm 81 W/m2
12:02 61.3 °F /  16.3 °C 59.5 °F /  15.3 °C 29.8in /  1008.1hPa WNW 2mph /  3.2km/h 6mph /  9.7km/h 94% 0.12in /  3.0mm 95 W/m2
12:07 61.3 °F /  16.3 °C 59.5 °F /  15.3 °C 29.8in /  1008.1hPa WNW 4mph /  6.4km/h 8mph /  12.9km/h 94% 0.13in /  3.3mm 109 W/m2
12:12 61.3 °F /  16.3 °C 59.5 °F /  15.3 °C 29.8in /  1008.1hPa WNW 8.1mph /  13km/h 9mph /  14.5km/h 94% 0.14in /  3.6mm 125 W/m2
12:17 61.3 °F /  16.3 °C 59.5 °F /  15.3 °C 29.8in /  1008.1hPa WNW 2.9mph /  4.7km/h 8mph /  12.9km/h 94% 0.14in /  3.6mm 148 W/m2
12:22 61.5 °F /  16.4 °C 60.1 °F /  15.6 °C 29.8in /  1008.1hPa WNW 6.9mph /  11.1km/h 8mph /  12.9km/h 95% 0.14in /  3.6mm 174 W/m2
12:27 61.5 °F /  16.4 °C 60.1 °F /  15.6 °C 29.8in /  1008.1hPa NW 2mph /  3.2km/h 12mph /  19.3km/h 95% 0.13in /  3.3mm 174 W/m2
12:32 61.5 °F /  16.4 °C 60.1 °F /  15.6 °C 29.8in /  1008.1hPa WNW 8.1mph /  13km/h 12mph /  19.3km/h 95% 0.13in /  3.3mm 179 W/m2
12:37 61.5 °F /  16.4 °C 60.1 °F /  15.6 °C 29.8in /  1008.5hPa West 6mph /  9.7km/h 8mph /  12.9km/h 95% 0.13in /  3.3mm 142 W/m2
12:42 61.5 °F /  16.4 °C 59.7 °F /  15.4 °C 29.8in /  1008.5hPa NW 2.9mph /  4.7km/h 12mph /  19.3km/h 94% 0.12in /  3.0mm 113 W/m2
12:47 61.5 °F /  16.4 °C 59.7 °F /  15.4 °C 29.8in /  1008.5hPa WNW 8.1mph /  13km/h 8mph /  12.9km/h 94% 0.12in /  3.0mm 88 W/m2
12:52 61.3 °F /  16.3 °C 59.5 °F /  15.3 °C 29.8in /  1008.5hPa WNW 4mph /  6.4km/h 11mph /  17.7km/h 94% 0.12in /  3.0mm 107 W/m2
12:57 61.3 °F /  16.3 °C 59.5 °F /  15.3 °C 29.8in /  1008.5hPa West 6mph /  9.7km/h 9mph /  14.5km/h 94% 0.12in /  3.0mm 139 W/m2
13:02 61.3 °F /  16.3 °C 59.5 °F /  15.3 °C 29.8in /  1008.5hPa WNW 2.9mph /  4.7km/h 9mph /  14.5km/h 94% 0.13in /  3.3mm 158 W/m2
13:07 61.5 °F /  16.4 °C 59.7 °F /  15.4 °C 29.8in /  1008.5hPa WNW 6mph /  9.7km/h 12mph /  19.3km/h 94% 0.12in /  3.0mm 162 W/m2
13:12 61.5 °F /  16.4 °C 59.7 °F /  15.4 °C 29.8in /  1008.5hPa WNW 4.9mph /  7.9km/h 12mph /  19.3km/h 94% 0.11in /  2.8mm 149 W/m2
13:17 61.5 °F /  16.4 °C 60.1 °F /  15.6 °C 29.8in /  1008.5hPa West 2.9mph /  4.7km/h 10mph /  16.1km/h 95% 0.11in /  2.8mm 142 W/m2
13:22 61.5 °F /  16.4 °C 60.1 °F /  15.6 °C 29.8in /  1008.5hPa WNW 6.9mph /  11.1km/h 9mph /  14.5km/h 95% 0.1in /  2.5mm 141 W/m2
13:27 61.5 °F /  16.4 °C 60.1 °F /  15.6 °C 29.8in /  1008.5hPa NNW 4.9mph /  7.9km/h 10mph /  16.1km/h 95% 0.1in /  2.5mm 128 W/m2
13:32 61.5 °F /  16.4 °C 59.7 °F /  15.4 °C 29.8in /  1008.5hPa NW 4mph /  6.4km/h 7mph /  11.3km/h 94% 0.11in /  2.8mm 130 W/m2
13:37 61.7 °F /  16.5 °C 60.3 °F /  15.7 °C 29.8in /  1008.5hPa WSW 4mph /  6.4km/h 8mph /  12.9km/h 95% 0.11in /  2.8mm 135 W/m2
13:42 61.7 °F /  16.5 °C 60.3 °F /  15.7 °C 29.8in /  1008.5hPa WNW 8.9mph /  14.3km/h 9mph /  14.5km/h 95% 0.11in /  2.8mm 123 W/m2
13:47 61.7 °F /  16.5 °C 59.9 °F /  15.5 °C 29.8in /  1008.5hPa WNW 4mph /  6.4km/h 8mph /  12.9km/h 94% 0.11in /  2.8mm 113 W/m2
13:52 61.5 °F /  16.4 °C 59.7 °F /  15.4 °C 29.8in /  1008.5hPa NW 4.9mph /  7.9km/h 11mph /  17.7km/h 94% 0.11in /  2.8mm 107 W/m2
13:57 61.5 °F /  16.4 °C 59.7 °F /  15.4 °C 29.8in /  1008.5hPa West 2.9mph /  4.7km/h 7mph /  11.3km/h 94% 0.11in /  2.8mm 104 W/m2
14:02 61.3 °F /  16.3 °C 59.5 °F /  15.3 °C 29.8in /  1008.5hPa NW 2.9mph /  4.7km/h 7mph /  11.3km/h 94% 0.1in /  2.5mm 95 W/m2
14:07 61.3 °F /  16.3 °C 59.5 °F /  15.3 °C 29.8in /  1008.5hPa West 2mph /  3.2km/h 8mph /  12.9km/h 94% 0.1in /  2.5mm 90 W/m2
14:12 61.3 °F /  16.3 °C 59.5 °F /  15.3 °C 29.8in /  1008.5hPa WSW 2.9mph /  4.7km/h 7mph /  11.3km/h 94% 0.09in /  2.3mm 84 W/m2
14:17 61.3 °F /  16.3 °C 59.5 °F /  15.3 °C 29.8in /  1008.5hPa NNW 2.9mph /  4.7km/h 7mph /  11.3km/h 94% 0.09in /  2.3mm 79 W/m2
14:22 61.3 °F /  16.3 °C 59.5 °F /  15.3 °C 29.8in /  1008.5hPa WNW 6.9mph /  11.1km/h 10mph /  16.1km/h 94% 0.11in /  2.8mm 77 W/m2
14:27 61.2 °F /  16.2 °C 59.4 °F /  15.2 °C 29.8in /  1008.8hPa WNW 2.9mph /  4.7km/h 7mph /  11.3km/h 94% 0.11in /  2.8mm 79 W/m2
14:32 61.2 °F /  16.2 °C 59.4 °F /  15.2 °C 29.8in /  1008.8hPa NW 0.9mph /  1.4km/h 7mph /  11.3km/h 94% 0.11in /  2.8mm 63 W/m2
14:37 61.2 °F /  16.2 °C 59.4 °F /  15.2 °C 29.8in /  1008.5hPa NW 2.9mph /  4.7km/h 9mph /  14.5km/h 94% 0.12in /  3.0mm 54 W/m2
14:42 61.2 °F /  16.2 °C 59.4 °F /  15.2 °C 29.8in /  1008.8hPa West 2mph /  3.2km/h 5mph /  8km/h 94% 0.13in /  3.3mm 62 W/m2
14:47 61 °F /  16.1 °C 59.2 °F /  15.1 °C 29.8in /  1008.8hPa WNW 4.9mph /  7.9km/h 10mph /  16.1km/h 94% 0.14in /  3.6mm 76 W/m2
14:52 61 °F /  16.1 °C 59.2 °F /  15.1 °C 29.8in /  1008.8hPa WSW 6.9mph /  11.1km/h 7mph /  11.3km/h 94% 0.15in /  3.8mm 84 W/m2
14:57 61 °F /  16.1 °C 59.2 °F /  15.1 °C 29.8in /  1008.5hPa SSW 2.9mph /  4.7km/h 10mph /  16.1km/h 94% 0.15in /  3.8mm 90 W/m2
15:02 61 °F /  16.1 °C 59.2 °F /  15.1 °C 29.8in /  1008.5hPa WNW 4.9mph /  7.9km/h 10mph /  16.1km/h 94% 0.16in /  4.1mm 91 W/m2
15:08 61 °F /  16.1 °C 59.2 °F /  15.1 °C 29.8in /  1008.5hPa NW 11mph /  17.7km/h 11mph /  17.7km/h 94% 0.16in /  4.1mm 83 W/m2
15:13 60.8 °F /  16 °C 59 °F /  15 °C 29.8in /  1008.5hPa West 6mph /  9.7km/h 9mph /  14.5km/h 94% 0.17in /  4.3mm 79 W/m2
15:18 60.8 °F /  16 °C 59 °F /  15 °C 29.8in /  1008.8hPa WNW 4mph /  6.4km/h 11mph /  17.7km/h 94% 0.16in /  4.1mm 76 W/m2
15:23 60.8 °F /  16 °C 59 °F /  15 °C 29.8in /  1008.8hPa West 2.9mph /  4.7km/h 9mph /  14.5km/h 94% 0.15in /  3.8mm 58 W/m2
15:28 60.8 °F /  16 °C 59 °F /  15 °C 29.8in /  1009.1hPa NNW 4mph /  6.4km/h 7mph /  11.3km/h 94% 0.16in /  4.1mm 54 W/m2
15:33 60.8 °F /  16 °C 59 °F /  15 °C 29.8in /  1009.1hPa NW 4.9mph /  7.9km/h 14mph /  22.5km/h 94% 0.15in /  3.8mm 67 W/m2
15:38 60.6 °F /  15.9 °C 58.8 °F /  14.9 °C 29.8in /  1008.8hPa NW 2.9mph /  4.7km/h 10mph /  16.1km/h 94% 0.16in /  4.1mm 77 W/m2
15:43 60.6 °F /  15.9 °C 58.8 °F /  14.9 °C 29.8in /  1008.8hPa WSW 4.9mph /  7.9km/h 8mph /  12.9km/h 94% 0.16in /  4.1mm 77 W/m2
15:48 60.6 °F /  15.9 °C 58.8 °F /  14.9 °C 29.8in /  1008.8hPa WNW 4.9mph /  7.9km/h 10mph /  16.1km/h 94% 0.15in /  3.8mm 81 W/m2
15:53 60.6 °F /  15.9 °C 58.8 °F /  14.9 °C 29.8in /  1008.8hPa WNW 4mph /  6.4km/h 9mph /  14.5km/h 94% 0.15in /  3.8mm 83 W/m2
15:58 60.6 °F /  15.9 °C 59.2 °F /  15.1 °C 29.8in /  1008.8hPa WSW 2.9mph /  4.7km/h 10mph /  16.1km/h 95% 0.15in /  3.8mm 86 W/m2
16:03 60.6 °F /  15.9 °C 58.8 °F /  14.9 °C 29.8in /  1008.8hPa SW 4mph /  6.4km/h 13mph /  20.9km/h 94% 0.14in /  3.6mm 95 W/m2
16:08 60.8 °F /  16 °C 59 °F /  15 °C 29.8in /  1008.8hPa NW 2mph /  3.2km/h 8mph /  12.9km/h 94% 0.13in /  3.3mm 102 W/m2
16:13 61 °F /  16.1 °C 59.2 °F /  15.1 °C 29.8in /  1008.8hPa NW 2mph /  3.2km/h 10mph /  16.1km/h 94% 0.13in /  3.3mm 102 W/m2
16:18 61 °F /  16.1 °C 59.2 °F /  15.1 °C 29.8in /  1008.5hPa Calm   8mph /  12.9km/h 94% 0.13in /  3.3mm 100 W/m2
16:23 61 °F /  16.1 °C 59.2 °F /  15.1 °C 29.8in /  1008.5hPa West 6mph /  9.7km/h 8mph /  12.9km/h 94% 0.12in /  3.0mm 97 W/m2
16:28 61 °F /  16.1 °C 59.2 °F /  15.1 °C 29.8in /  1008.5hPa West 6mph /  9.7km/h 7mph /  11.3km/h 94% 0.11in /  2.8mm 111 W/m2
16:33 61 °F /  16.1 °C 59.2 °F /  15.1 °C 29.8in /  1008.5hPa NW 6.9mph /  11.1km/h 12mph /  19.3km/h 94% 0.1in /  2.5mm 134 W/m2
16:38 61.2 °F /  16.2 °C 59.4 °F /  15.2 °C 29.8in /  1008.1hPa West 6mph /  9.7km/h 9mph /  14.5km/h 94% 0.07in /  1.8mm 163 W/m2
16:43 61.2 °F /  16.2 °C 59.4 °F /  15.2 °C 29.8in /  1008.1hPa WSW 8.9mph /  14.3km/h 10mph /  16.1km/h 94% 0.06in /  1.5mm 183 W/m2
16:48 61.2 °F /  16.2 °C 59.4 °F /  15.2 °C 29.8in /  1007.8hPa WNW 6.9mph /  11.1km/h 8mph /  12.9km/h 94% 0.05in /  1.3mm 195 W/m2
16:53 61.2 °F /  16.2 °C 59.4 °F /  15.2 °C 29.8in /  1007.8hPa West 4mph /  6.4km/h 13mph /  20.9km/h 94% 0.04in /  1.0mm 199 W/m2
16:58 61.2 °F /  16.2 °C 59.4 °F /  15.2 °C 29.8in /  1008.5hPa West 0.9mph /  1.4km/h 10mph /  16.1km/h 94% 0.04in /  1.0mm 211 W/m2
17:03 61.3 °F /  16.3 °C 59.9 °F /  15.5 °C 29.8in /  1008.5hPa SE 0.9mph /  1.4km/h 11mph /  17.7km/h 95% 0.03in /  0.8mm 142 W/m2
17:08 61.5 °F /  16.4 °C 60.1 °F /  15.6 °C 29.8in /  1008.8hPa NW 0.9mph /  1.4km/h 3mph /  4.8km/h 95% 0.03in /  0.8mm 100 W/m2
17:13 61.3 °F /  16.3 °C 59.5 °F /  15.3 °C 29.8in /  1008.8hPa West 2mph /  3.2km/h 6mph /  9.7km/h 94% 0.02in /  0.5mm 53 W/m2
17:18 61.3 °F /  16.3 °C 59.5 °F /  15.3 °C 29.8in /  1009.1hPa WNW 0.9mph /  1.4km/h 1mph /  1.6km/h 94% 0.02in /  0.5mm 46 W/m2
17:23 61.3 °F /  16.3 °C 59.5 °F /  15.3 °C 29.8in /  1009.1hPa West 2.9mph /  4.7km/h 4mph /  6.4km/h 94% 0.02in /  0.5mm 46 W/m2
17:28 61.2 °F /  16.2 °C 59.4 °F /  15.2 °C 29.8in /  1009.1hPa North 4mph /  6.4km/h 5mph /  8km/h 94% 0.02in /  0.5mm 46 W/m2
17:33 61 °F /  16.1 °C 59.2 °F /  15.1 °C 29.8in /  1009.1hPa NW 0.9mph /  1.4km/h 1mph /  1.6km/h 94% 0.02in /  0.5mm 44 W/m2
17:38 61 °F /  16.1 °C 59.2 °F /  15.1 °C 29.8in /  1009.1hPa NW 2.9mph /  4.7km/h 8mph /  12.9km/h 94% 0.02in /  0.5mm 39 W/m2
17:43 60.8 °F /  16 °C 59 °F /  15 °C 29.8in /  1009.1hPa NW 2.9mph /  4.7km/h 6mph /  9.7km/h 94% 0.02in /  0.5mm 44 W/m2
17:48 60.6 °F /  15.9 °C 58.8 °F /  14.9 °C 29.8in /  1008.8hPa NW 2.9mph /  4.7km/h 8mph /  12.9km/h 94% 0.02in /  0.5mm 67 W/m2
17:53 60.4 °F /  15.8 °C 58.6 °F /  14.8 °C 29.8in /  1008.8hPa West 0.9mph /  1.4km/h 6mph /  9.7km/h 94% 0.01in /  0.2mm 139 W/m2
17:58 60.4 °F /  15.8 °C 58.6 °F /  14.8 °C 29.8in /  1009.1hPa WNW 2.9mph /  4.7km/h 7mph /  11.3km/h 94% 0.01in /  0.2mm 91 W/m2
18:03 60.6 °F /  15.9 °C 58.8 °F /  14.9 °C 29.8in /  1008.8hPa West 2mph /  3.2km/h 3mph /  4.8km/h 94% 0.01in /  0.2mm 111 W/m2
18:08 60.6 °F /  15.9 °C 58.8 °F /  14.9 °C 29.8in /  1008.8hPa WSW 0.9mph /  1.4km/h 5mph /  8km/h 94% 0.01in /  0.2mm 83 W/m2
18:13 60.6 °F /  15.9 °C 58.8 °F /  14.9 °C 29.8in /  1008.8hPa NW 2.9mph /  4.7km/h 7mph /  11.3km/h 94% 0.01in /  0.2mm 104 W/m2
18:18 60.6 °F /  15.9 °C 58.8 °F /  14.9 °C 29.8in /  1008.8hPa Calm   4mph /  6.4km/h 94% 0.01in /  0.2mm 81 W/m2
18:23 60.8 °F /  16 °C 58.8 °F /  14.9 °C 29.8in /  1008.8hPa WNW 2mph /  3.2km/h 4mph /  6.4km/h 93% 0in /  0.0mm 90 W/m2
18:28 60.8 °F /  16 °C 58.8 °F /  14.9 °C 29.8in /  1008.8hPa WNW 2.9mph /  4.7km/h 7mph /  11.3km/h 93% 0in /  0.0mm 70 W/m2
18:33 60.8 °F /  16 °C 58.8 °F /  14.9 °C 29.8in /  1008.8hPa North 0.9mph /  1.4km/h 2mph /  3.2km/h 93% 0in /  0.0mm 69 W/m2
18:38 61 °F /  16.1 °C 59.2 °F /  15.1 °C 29.8in /  1008.8hPa NNW 0.9mph /  1.4km/h 4mph /  6.4km/h 94% 0in /  0.0mm 51 W/m2
18:43 61 °F /  16.1 °C 59 °F /  15 °C 29.8in /  1009.1hPa NW 2mph /  3.2km/h 7mph /  11.3km/h 93% 0in /  0.0mm 56 W/m2
18:48 61 °F /  16.1 °C 59.2 °F /  15.1 °C 29.8in /  1008.8hPa WNW 2mph /  3.2km/h 4mph /  6.4km/h 94% 0in /  0.0mm 60 W/m2
18:53 61 °F /  16.1 °C 59.2 °F /  15.1 °C 29.8in /  1008.8hPa Calm   7mph /  11.3km/h 94% 0in /  0.0mm 51 W/m2
18:58 61 °F /  16.1 °C 59.2 °F /  15.1 °C 29.8in /  1008.8hPa NW 0.9mph /  1.4km/h 2mph /  3.2km/h 94% 0in /  0.0mm 39 W/m2
19:03 61 °F /  16.1 °C 59.2 °F /  15.1 °C 29.8in /  1009.1hPa NNE 2.9mph /  4.7km/h 5mph /  8km/h 94% 0in /  0.0mm 33 W/m2
19:08 61 °F /  16.1 °C 59 °F /  15 °C 29.8in /  1009.1hPa WNW 2mph /  3.2km/h 5mph /  8km/h 93% 0in /  0.0mm 30 W/m2
19:13 60.8 °F /  16 °C 59 °F /  15 °C 29.8in /  1009.1hPa Calm   2mph /  3.2km/h 94% 0in /  0.0mm 30 W/m2
19:18 60.6 °F /  15.9 °C 58.8 °F /  14.9 °C 29.8in /  1009.1hPa NW 0.9mph /  1.4km/h 3mph /  4.8km/h 94% 0in /  0.0mm 35 W/m2
19:23 60.4 °F /  15.8 °C 58.6 °F /  14.8 °C 29.8in /  1009.1hPa West 2.9mph /  4.7km/h 11mph /  17.7km/h 94% 0in /  0.0mm 37 W/m2
19:28 60.4 °F /  15.8 °C 58.6 °F /  14.8 °C 29.8in /  1009.1hPa Calm   6mph /  9.7km/h 94% 0in /  0.0mm 26 W/m2
19:33 60.4 °F /  15.8 °C 58.6 °F /  14.8 °C 29.8in /  1009.5hPa Calm   9mph /  14.5km/h 94% 0in /  0.0mm 21 W/m2
19:38 60.3 °F /  15.7 °C 58.5 °F /  14.7 °C 29.8in /  1009.5hPa NNW 0.9mph /  1.4km/h 2mph /  3.2km/h 94% 0in /  0.0mm 19 W/m2
19:43 60.3 °F /  15.7 °C 58.5 °F /  14.7 °C 29.8in /  1009.5hPa NNE 0.9mph /  1.4km/h 2mph /  3.2km/h 94% 0in /  0.0mm 30 W/m2
19:48 60.3 °F /  15.7 °C 58.5 °F /  14.7 °C 29.8in /  1009.5hPa NNW 4.9mph /  7.9km/h 5mph /  8km/h 94% 0in /  0.0mm 33 W/m2
19:53 60.3 °F /  15.7 °C 58.5 °F /  14.7 °C 29.8in /  1009.5hPa ENE 2mph /  3.2km/h 4mph /  6.4km/h 94% 0in /  0.0mm 32 W/m2
19:58 60.1 °F /  15.6 °C 58.3 °F /  14.6 °C 29.8in /  1009.8hPa ENE 0.9mph /  1.4km/h 2mph /  3.2km/h 94% 0in /  0.0mm 23 W/m2
20:03 60.3 °F /  15.7 °C 58.5 °F /  14.7 °C 29.8in /  1009.8hPa North 2mph /  3.2km/h 2mph /  3.2km/h 94% 0in /  0.0mm 19 W/m2
20:08 60.1 °F /  15.6 °C 58.3 °F /  14.6 °C 29.8in /  1009.8hPa Calm     94% 0in /  0.0mm 16 W/m2
20:14 60.1 °F /  15.6 °C 58.3 °F /  14.6 °C 29.8in /  1009.8hPa WNW 4mph /  6.4km/h 7mph /  11.3km/h 94% 0in /  0.0mm 16 W/m2
20:19 60.1 °F /  15.6 °C 58.3 °F /  14.6 °C 29.8in /  1009.8hPa Calm   4mph /  6.4km/h 94% 0in /  0.0mm 14 W/m2
20:24 60.3 °F /  15.7 °C 58.5 °F /  14.7 °C 29.8in /  1009.5hPa NNW 2mph /  3.2km/h 7mph /  11.3km/h 94% 0in /  0.0mm 18 W/m2
20:29 60.3 °F /  15.7 °C 58.5 °F /  14.7 °C 29.8in /  1009.1hPa Calm   1mph /  1.6km/h 94% 0in /  0.0mm 18 W/m2
20:34 60.3 °F /  15.7 °C 58.5 °F /  14.7 °C 29.8in /  1009.1hPa WNW 0.9mph /  1.4km/h 3mph /  4.8km/h 94% 0in /  0.0mm 21 W/m2
20:39 60.3 °F /  15.7 °C 58.5 °F /  14.7 °C 29.8in /  1009.1hPa Calm   2mph /  3.2km/h 94% 0in /  0.0mm 21 W/m2
20:44 60.3 °F /  15.7 °C 58.5 °F /  14.7 °C 29.8in /  1009.1hPa Calm   3mph /  4.8km/h 94% 0in /  0.0mm 19 W/m2
20:49 60.3 °F /  15.7 °C 58.5 °F /  14.7 °C 29.8in /  1009.1hPa Calm   7mph /  11.3km/h 94% 0in /  0.0mm 14 W/m2
20:54 60.3 °F /  15.7 °C 58.5 °F /  14.7 °C 29.8in /  1009.1hPa NW 0.9mph /  1.4km/h 2mph /  3.2km/h 94% 0in /  0.0mm 11 W/m2
20:59 60.3 °F /  15.7 °C 58.5 °F /  14.7 °C 29.8in /  1009.1hPa East 0.9mph /  1.4km/h 7mph /  11.3km/h 94% 0in /  0.0mm 5 W/m2
21:04 60.3 °F /  15.7 °C 58.5 °F /  14.7 °C 29.8in /  1009.1hPa NNW 0.9mph /  1.4km/h 3mph /  4.8km/h 94% 0in /  0.0mm 0 W/m2
21:09 60.3 °F /  15.7 °C 58.5 °F /  14.7 °C 29.8in /  1009.1hPa Calm   2mph /  3.2km/h 94% 0in /  0.0mm 5 W/m2
21:14 60.3 °F /  15.7 °C 58.5 °F /  14.7 °C 29.8in /  1009.1hPa NNE 0.9mph /  1.4km/h 1mph /  1.6km/h 94% 0in /  0.0mm 0 W/m2
21:19 60.3 °F /  15.7 °C 58.5 °F /  14.7 °C 29.8in /  1009.1hPa ESE 0.9mph /  1.4km/h 4mph /  6.4km/h 94% 0in /  0.0mm 0 W/m2
21:24 60.3 °F /  15.7 °C 58.5 °F /  14.7 °C 29.8in /  1009.1hPa East 2.9mph /  4.7km/h 4mph /  6.4km/h 94% 0in /  0.0mm 0 W/m2
21:29 60.3 °F /  15.7 °C 58.5 °F /  14.7 °C 29.8in /  1009.5hPa Calm   2mph /  3.2km/h 94% 0in /  0.0mm 0 W/m2
21:34 60.3 °F /  15.7 °C 58.5 °F /  14.7 °C 29.8in /  1009.5hPa West 2mph /  3.2km/h 4mph /  6.4km/h 94% 0in /  0.0mm 0 W/m2
21:39 60.3 °F /  15.7 °C 58.5 °F /  14.7 °C 29.8in /  1009.5hPa North 0.9mph /  1.4km/h 2mph /  3.2km/h 94% 0in /  0.0mm 0 W/m2
21:44 60.3 °F /  15.7 °C 58.5 °F /  14.7 °C 29.8in /  1009.5hPa Calm     94% 0in /  0.0mm 0 W/m2
21:49 60.3 °F /  15.7 °C 58.5 °F /  14.7 °C 29.8in /  1009.5hPa WNW 4.9mph /  7.9km/h 5mph /  8km/h 94% 0in /  0.0mm 0 W/m2
21:54 60.3 °F /  15.7 °C 58.5 °F /  14.7 °C 29.8in /  1009.5hPa WNW 0.9mph /  1.4km/h 3mph /  4.8km/h 94% 0in /  0.0mm 0 W/m2
21:59 60.3 °F /  15.7 °C 58.5 °F /  14.7 °C 29.8in /  1009.5hPa NW 7mph /  11.3km/h 7mph /  11.3km/h 94% 0in /  0.0mm 0 W/m2
22:04 60.3 °F /  15.7 °C 58.5 °F /  14.7 °C 29.8in /  1009.5hPa North 0.9mph /  1.4km/h 4mph /  6.4km/h 94% 0in /  0.0mm 0 W/m2
22:09 60.3 °F /  15.7 °C 58.5 °F /  14.7 °C 29.8in /  1009.8hPa NNW 2mph /  3.2km/h 2mph /  3.2km/h 94% 0in /  0.0mm 0 W/m2
22:14 60.3 °F /  15.7 °C 58.5 °F /  14.7 °C 29.8in /  1009.8hPa Calm   4mph /  6.4km/h 94% 0in /  0.0mm 0 W/m2
22:19 60.3 °F /  15.7 °C 58.5 °F /  14.7 °C 29.8in /  1009.8hPa Calm   1mph /  1.6km/h 94% 0in /  0.0mm 0 W/m2
22:24 60.3 °F /  15.7 °C 58.5 °F /  14.7 °C 29.8in /  1009.8hPa NE 0.9mph /  1.4km/h 1mph /  1.6km/h 94% 0in /  0.0mm 0 W/m2
22:29 60.3 °F /  15.7 °C 58.5 °F /  14.7 °C 29.8in /  1009.5hPa NNE 0.9mph /  1.4km/h 2mph /  3.2km/h 94% 0in /  0.0mm 0 W/m2
22:34 60.3 °F /  15.7 °C 58.5 °F /  14.7 °C 29.8in /  1009.5hPa NW 2mph /  3.2km/h 3mph /  4.8km/h 94% 0in /  0.0mm 0 W/m2
22:39 60.3 °F /  15.7 °C 58.5 °F /  14.7 °C 29.8in /  1009.8hPa NW 0.9mph /  1.4km/h 2mph /  3.2km/h 94% 0in /  0.0mm 0 W/m2
22:44 60.3 °F /  15.7 °C 58.5 °F /  14.7 °C 29.8in /  1009.8hPa North 2.9mph /  4.7km/h 4mph /  6.4km/h 94% 0in /  0.0mm 0 W/m2
22:49 60.3 °F /  15.7 °C 58.5 °F /  14.7 °C 29.8in /  1009.5hPa WNW 0.9mph /  1.4km/h 2mph /  3.2km/h 94% 0in /  0.0mm 0 W/m2
22:54 60.3 °F /  15.7 °C 58.5 °F /  14.7 °C 29.8in /  1009.5hPa NNW 2mph /  3.2km/h 4mph /  6.4km/h 94% 0in /  0.0mm 0 W/m2
22:59 60.3 °F /  15.7 °C 58.5 °F /  14.7 °C 29.8in /  1009.5hPa NW 2mph /  3.2km/h 3mph /  4.8km/h 94% 0in /  0.0mm 0 W/m2
23:04 60.3 °F /  15.7 °C 58.5 °F /  14.7 °C 29.8in /  1009.5hPa WNW 4mph /  6.4km/h 6mph /  9.7km/h 94% 0in /  0.0mm 0 W/m2
23:09 60.3 °F /  15.7 °C 58.5 °F /  14.7 °C 29.8in /  1009.1hPa NW 0.9mph /  1.4km/h 4mph /  6.4km/h 94% 0in /  0.0mm 0 W/m2
23:14 60.3 °F /  15.7 °C 58.5 °F /  14.7 °C 29.8in /  1009.1hPa NW 2.9mph /  4.7km/h 7mph /  11.3km/h 94% 0in /  0.0mm 0 W/m2
23:19 60.1 °F /  15.6 °C 58.3 °F /  14.6 °C 29.8in /  1009.1hPa NW 2.9mph /  4.7km/h 5mph /  8km/h 94% 0in /  0.0mm 0 W/m2
23:24 60.1 °F /  15.6 °C 58.3 °F /  14.6 °C 29.8in /  1009.1hPa WNW 2mph /  3.2km/h 7mph /  11.3km/h 94% 0in /  0.0mm 0 W/m2
23:29 60.1 °F /  15.6 °C 58.3 °F /  14.6 °C 29.8in /  1009.1hPa WNW 0.9mph /  1.4km/h 6mph /  9.7km/h 94% 0in /  0.0mm 0 W/m2
23:34 60.1 °F /  15.6 °C 58.3 °F /  14.6 °C 29.8in /  1009.1hPa Calm   4mph /  6.4km/h 94% 0in /  0.0mm 0 W/m2
23:39 60.1 °F /  15.6 °C 58.3 °F /  14.6 °C 29.8in /  1009.1hPa Calm   4mph /  6.4km/h 94% 0in /  0.0mm 0 W/m2
23:44 59.9 °F /  15.5 °C 58.1 °F /  14.5 °C 29.8in /  1009.1hPa Calm   3mph /  4.8km/h 94% 0in /  0.0mm 0 W/m2
23:49 59.9 °F /  15.5 °C 58.5 °F /  14.7 °C 29.8in /  1009.1hPa West 2mph /  3.2km/h 3mph /  4.8km/h 95% 0in /  0.0mm 0 W/m2
23:54 59.9 °F /  15.5 °C 58.5 °F /  14.7 °C 29.8in /  1009.1hPa NW 2mph /  3.2km/h 4mph /  6.4km/h 95% 0in /  0.0mm 0 W/m2
23:59 59.9 °F /  15.5 °C 58.5 °F /  14.7 °C 29.8in /  1009.1hPa WNW 2mph /  3.2km/h 4mph /  6.4km/h 95% 0in /  0.0mm 0 W/m2
Juneau County Weather
Compliments of Weather Underground - 4 mb